RUNWAY INFORMATION
Runway Length Width Elevation Displaced
Threshold
Heading | Runway Length Width Elevation Displaced
Threshold
Heading
15 8527 ft 151 ft 305 ft 1069 ft 148 | 33 8527 ft 151 ft 328 ft 987 ft 328

 AIRPORT FREQUENCIES
Type APP Name APP Frequency 118.05 MHZ
Type ATIS Name ATIS Frequency 136.02 MHZ
Type GND Name GND Frequency 121.8 MHZ
Type TWR Name TWR Frequency 118.3 MHZ

 AIRPORT NEAR NAVIGATION AIDS
Type NDB Name Birmingham Frequency 406 KHZ

 METAR AND TAF INFORMATION
METAR FOR EGBB
ADDS - METARS form results

(0600 UTC 07 March 2021)
Data provider http://aviationweather.gov/metar/data/
 
METAR text: EGBB 070550Z VRB03KT 9999 OVC038 M01/M04 Q1029
Conditions at: EGBB (BIRMINGHAM AIRPO, GB) observed 0550 UTC 07 March 2021
Temperature: -1.0°C (30°F)
Dewpoint: -4.0°C (25°F) [RH = 80%]
Pressure (altimeter): 30.38 inches Hg (1029.0 mb)
Winds: variable direction winds at 3 MPH (3 knots; 1.5 m/s)
Visibility: 6 or more miles (10+ km)
Ceiling: 3800 feet AGL
Clouds: overcast cloud deck at 3800 feet AGL
Weather: no significant weather observed at this time

METAR text: EGBB 070520Z 28001KT 9999 BKN038 M01/M04 Q1029
Conditions at: EGBB (BIRMINGHAM AIRPO, GB) observed 0520 UTC 07 March 2021
Temperature: -1.0°C (30°F)
Dewpoint: -4.0°C (25°F) [RH = 80%]
Pressure (altimeter): 30.38 inches Hg (1029.0 mb)
Winds: from the W (280 degrees) at 1 MPH (1 knots; 0.5 m/s)
Visibility: 6 or more miles (10+ km)
Ceiling: 3800 feet AGL
Clouds: broken clouds at 3800 feet AGL
Weather: no significant weather observed at this time

Forecast for: EGBB (BIRMINGHAM AIRPO, GB)
Text: TAF EGBB 070455Z 0706/0806 VRB02KT 9999 SCT040
Forecast period: 0600 UTC 07 March 2021 to 0600 UTC 08 March 2021
Forecast type: FROM: standard forecast or significant change
Winds: variable direction winds at 2 MPH (2 knots; 1.0 m/s)
Visibility: 6 or more miles (10+ km)
Ceiling: at least 12,000 feet AGL
Clouds: scattered clouds at 4000 feet AGL
Weather: no significant weather forecast for this period
Text: PROB30
Forecast period: 0600 to 0900 UTC 07 March 2021
Forecast type: TEMPORARY: The following changes expected for less than half the time period
Visibility: 4 miles (7 km)
Ceiling: unknown
Clouds: missing
Weather: no significant weather forecast for this period



© 2013 - 2021, FlightSimLog.org - Powered by Virtual Airlines Manager